sensor_id;sensor_type;location;lat;lon;timestamp;P1;durP1;ratioP1;P2;durP2;ratioP2
57565;SDS011;63999;43.882;-0.310;2023-03-01T00:01:26;5.00;;;3.58;;
57565;SDS011;63999;43.882;-0.310;2023-03-01T00:03:54;4.57;;;3.45;;
57565;SDS011;63999;43.882;-0.310;2023-03-01T00:06:20;5.18;;;3.30;;
57565;SDS011;63999;43.882;-0.310;2023-03-01T00:08:46;5.57;;;3.85;;
57565;SDS011;63999;43.882;-0.310;2023-03-01T00:11:13;6.07;;;3.80;;
57565;SDS011;63999;43.882;-0.310;2023-03-01T00:13:44;4.20;;;3.20;;
57565;SDS011;63999;43.882;-0.310;2023-03-01T00:16:13;4.88;;;3.75;;
57565;SDS011;63999;43.882;-0.310;2023-03-01T00:18:41;5.78;;;4.03;;
57565;SDS011;63999;43.882;-0.310;2023-03-01T00:21:07;6.00;;;4.53;;
57565;SDS011;63999;43.882;-0.310;2023-03-01T00:23:36;6.60;;;4.55;;
57565;SDS011;63999;43.882;-0.310;2023-03-01T00:26:05;6.60;;;4.57;;
57565;SDS011;63999;43.882;-0.310;2023-03-01T00:28:32;5.97;;;4.20;;
57565;SDS011;63999;43.882;-0.310;2023-03-01T00:33:31;6.10;;;4.50;;
57565;SDS011;63999;43.882;-0.310;2023-03-01T00:35:58;5.68;;;4.18;;
57565;SDS011;63999;43.882;-0.310;2023-03-01T00:38:24;4.78;;;3.90;;
57565;SDS011;63999;43.882;-0.310;2023-03-01T00:40:49;5.15;;;3.92;;
57565;SDS011;63999;43.882;-0.310;2023-03-01T00:43:15;6.85;;;3.90;;
57565;SDS011;63999;43.882;-0.310;2023-03-01T00:45:41;6.55;;;4.90;;
57565;SDS011;63999;43.882;-0.310;2023-03-01T00:48:07;6.93;;;4.47;;
57565;SDS011;63999;43.882;-0.310;2023-03-01T00:50:32;5.90;;;4.18;;
57565;SDS011;63999;43.882;-0.310;2023-03-01T00:52:58;6.25;;;4.07;;
57565;SDS011;63999;43.882;-0.310;2023-03-01T00:55:24;6.75;;;4.15;;
57565;SDS011;63999;43.882;-0.310;2023-03-01T00:57:50;5.20;;;3.83;;
57565;SDS011;63999;43.882;-0.310;2023-03-01T01:00:16;5.80;;;3.75;;
57565;SDS011;63999;43.882;-0.310;2023-03-01T01:02:43;5.95;;;3.90;;
57565;SDS011;63999;43.882;-0.310;2023-03-01T01:05:09;4.30;;;3.67;;
57565;SDS011;63999;43.882;-0.310;2023-03-01T01:07:35;4.20;;;3.60;;
57565;SDS011;63999;43.882;-0.310;2023-03-01T01:10:01;5.88;;;3.70;;
57565;SDS011;63999;43.882;-0.310;2023-03-01T01:12:28;5.57;;;3.80;;
57565;SDS011;63999;43.882;-0.310;2023-03-01T01:14:54;4.78;;;4.03;;
57565;SDS011;63999;43.882;-0.310;2023-03-01T01:17:20;6.03;;;3.75;;
57565;SDS011;63999;43.882;-0.310;2023-03-01T01:19:47;5.38;;;3.80;;
57565;SDS011;63999;43.882;-0.310;2023-03-01T01:22:13;3.83;;;3.42;;
57565;SDS011;63999;43.882;-0.310;2023-03-01T01:24:39;5.72;;;3.50;;
57565;SDS011;63999;43.882;-0.310;2023-03-01T01:27:04;4.95;;;3.30;;
57565;SDS011;63999;43.882;-0.310;2023-03-01T01:29:32;4.78;;;3.30;;
57565;SDS011;63999;43.882;-0.310;2023-03-01T01:31:58;4.85;;;3.80;;
57565;SDS011;63999;43.882;-0.310;2023-03-01T01:34:23;6.38;;;3.42;;
57565;SDS011;63999;43.882;-0.310;2023-03-01T01:36:52;4.85;;;3.55;;
57565;SDS011;63999;43.882;-0.310;2023-03-01T01:39:19;4.88;;;3.75;;
57565;SDS011;63999;43.882;-0.310;2023-03-01T01:41:47;5.35;;;3.72;;
57565;SDS011;63999;43.882;-0.310;2023-03-01T01:44:15;5.25;;;3.65;;
57565;SDS011;63999;43.882;-0.310;2023-03-01T01:46:49;4.35;;;3.42;;
57565;SDS011;63999;43.882;-0.310;2023-03-01T01:51:51;4.03;;;3.63;;
57565;SDS011;63999;43.882;-0.310;2023-03-01T01:54:49;5.45;;;3.50;;
57565;SDS011;63999;43.882;-0.310;2023-03-01T01:57:27;4.50;;;3.28;;
57565;SDS011;63999;43.882;-0.310;2023-03-01T02:00:00;5.72;;;3.90;;
57565;SDS011;63999;43.882;-0.310;2023-03-01T02:02:31;4.93;;;3.30;;
57565;SDS011;63999;43.882;-0.310;2023-03-01T02:05:08;5.65;;;3.90;;
57565;SDS011;63999;43.882;-0.310;2023-03-01T02:07:38;4.25;;;3.85;;
57565;SDS011;63999;43.882;-0.310;2023-03-01T02:10:05;6.60;;;4.35;;
57565;SDS011;63999;43.882;-0.310;2023-03-01T02:12:31;5.10;;;4.07;;
57565;SDS011;63999;43.882;-0.310;2023-03-01T02:14:57;5.50;;;4.30;;
57565;SDS011;63999;43.882;-0.310;2023-03-01T02:17:23;6.05;;;4.20;;
57565;SDS011;63999;43.882;-0.310;2023-03-01T02:22:40;5.47;;;3.60;;
57565;SDS011;63999;43.882;-0.310;2023-03-01T02:30:41;5.47;;;4.03;;
57565;SDS011;63999;43.882;-0.310;2023-03-01T02:33:30;6.20;;;4.03;;
57565;SDS011;63999;43.882;-0.310;2023-03-01T02:35:58;4.68;;;3.80;;
57565;SDS011;63999;43.882;-0.310;2023-03-01T02:38:26;4.72;;;3.75;;
57565;SDS011;63999;43.882;-0.310;2023-03-01T02:40:54;4.88;;;4.00;;
57565;SDS011;63999;43.882;-0.310;2023-03-01T02:43:22;6.38;;;4.07;;
57565;SDS011;63999;43.882;-0.310;2023-03-01T02:45:52;5.10;;;3.90;;
57565;SDS011;63999;43.882;-0.310;2023-03-01T02:48:22;5.78;;;4.43;;
57565;SDS011;63999;43.882;-0.310;2023-03-01T02:51:04;6.57;;;4.88;;
57565;SDS011;63999;43.882;-0.310;2023-03-01T02:53:55;8.13;;;5.07;;
57565;SDS011;63999;43.882;-0.310;2023-03-01T02:56:24;7.28;;;5.20;;
57565;SDS011;63999;43.882;-0.310;2023-03-01T02:58:50;6.70;;;5.40;;
57565;SDS011;63999;43.882;-0.310;2023-03-01T03:01:18;8.82;;;5.18;;
57565;SDS011;63999;43.882;-0.310;2023-03-01T03:03:45;7.25;;;5.55;;
57565;SDS011;63999;43.882;-0.310;2023-03-01T03:06:12;6.78;;;5.20;;
57565;SDS011;63999;43.882;-0.310;2023-03-01T03:08:37;5.82;;;4.68;;
57565;SDS011;63999;43.882;-0.310;2023-03-01T03:11:04;7.65;;;4.60;;
57565;SDS011;63999;43.882;-0.310;2023-03-01T03:13:29;6.97;;;5.40;;
57565;SDS011;63999;43.882;-0.310;2023-03-01T03:15:55;6.85;;;4.70;;
57565;SDS011;63999;43.882;-0.310;2023-03-01T03:18:22;7.82;;;5.47;;
57565;SDS011;63999;43.882;-0.310;2023-03-01T03:20:50;5.88;;;4.57;;
57565;SDS011;63999;43.882;-0.310;2023-03-01T03:23:18;5.88;;;4.45;;
57565;SDS011;63999;43.882;-0.310;2023-03-01T03:25:45;6.05;;;4.88;;
57565;SDS011;63999;43.882;-0.310;2023-03-01T03:28:14;5.82;;;4.75;;
57565;SDS011;63999;43.882;-0.310;2023-03-01T03:30:41;5.78;;;4.63;;
57565;SDS011;63999;43.882;-0.310;2023-03-01T03:33:08;6.97;;;4.82;;
57565;SDS011;63999;43.882;-0.310;2023-03-01T03:35:39;5.28;;;4.35;;
57565;SDS011;63999;43.882;-0.310;2023-03-01T03:38:08;7.07;;;4.47;;
57565;SDS011;63999;43.882;-0.310;2023-03-01T03:40:41;5.70;;;4.60;;
57565;SDS011;63999;43.882;-0.310;2023-03-01T03:43:12;5.93;;;4.10;;
57565;SDS011;63999;43.882;-0.310;2023-03-01T03:45:47;6.82;;;4.70;;
57565;SDS011;63999;43.882;-0.310;2023-03-01T03:48:15;5.47;;;4.90;;
57565;SDS011;63999;43.882;-0.310;2023-03-01T03:50:41;7.53;;;5.20;;
57565;SDS011;63999;43.882;-0.310;2023-03-01T03:53:08;5.60;;;4.68;;
57565;SDS011;63999;43.882;-0.310;2023-03-01T03:55:36;6.10;;;4.43;;
57565;SDS011;63999;43.882;-0.310;2023-03-01T03:58:04;6.90;;;5.18;;
57565;SDS011;63999;43.882;-0.310;2023-03-01T04:00:33;4.93;;;4.35;;
57565;SDS011;63999;43.882;-0.310;2023-03-01T04:03:00;7.10;;;4.90;;
57565;SDS011;63999;43.882;-0.310;2023-03-01T04:05:26;6.13;;;4.22;;
57565;SDS011;63999;43.882;-0.310;2023-03-01T04:07:54;5.93;;;4.38;;
57565;SDS011;63999;43.882;-0.310;2023-03-01T04:10:26;6.35;;;4.95;;
57565;SDS011;63999;43.882;-0.310;2023-03-01T04:12:57;8.48;;;5.10;;
57565;SDS011;63999;43.882;-0.310;2023-03-01T04:15:24;6.78;;;5.13;;
57565;SDS011;63999;43.882;-0.310;2023-03-01T04:17:52;6.22;;;5.03;;
57565;SDS011;63999;43.882;-0.310;2023-03-01T04:20:21;7.40;;;5.57;;
57565;SDS011;63999;43.882;-0.310;2023-03-01T04:23:04;5.97;;;4.70;;
57565;SDS011;63999;43.882;-0.310;2023-03-01T04:25:41;5.57;;;4.70;;
57565;SDS011;63999;43.882;-0.310;2023-03-01T04:28:11;6.07;;;4.82;;
57565;SDS011;63999;43.882;-0.310;2023-03-01T04:30:38;5.95;;;4.45;;
57565;SDS011;63999;43.882;-0.310;2023-03-01T04:33:07;4.95;;;4.15;;
57565;SDS011;63999;43.882;-0.310;2023-03-01T04:35:34;6.38;;;4.40;;
57565;SDS011;63999;43.882;-0.310;2023-03-01T04:38:01;6.30;;;4.90;;
57565;SDS011;63999;43.882;-0.310;2023-03-01T04:40:27;6.63;;;4.43;;
57565;SDS011;63999;43.882;-0.310;2023-03-01T04:42:53;7.07;;;4.70;;
57565;SDS011;63999;43.882;-0.310;2023-03-01T04:45:19;7.13;;;4.57;;
57565;SDS011;63999;43.882;-0.310;2023-03-01T04:47:45;5.50;;;4.40;;
57565;SDS011;63999;43.882;-0.310;2023-03-01T04:50:12;5.80;;;4.43;;
57565;SDS011;63999;43.882;-0.310;2023-03-01T04:52:40;6.05;;;4.53;;
57565;SDS011;63999;43.882;-0.310;2023-03-01T04:55:07;5.57;;;4.32;;
57565;SDS011;63999;43.882;-0.310;2023-03-01T04:57:33;6.90;;;4.70;;
57565;SDS011;63999;43.882;-0.310;2023-03-01T04:59:59;5.00;;;4.50;;
57565;SDS011;63999;43.882;-0.310;2023-03-01T05:02:25;4.60;;;4.07;;
57565;SDS011;63999;43.882;-0.310;2023-03-01T05:04:51;5.85;;;4.55;;
57565;SDS011;63999;43.882;-0.310;2023-03-01T05:07:16;6.47;;;4.35;;
57565;SDS011;63999;43.882;-0.310;2023-03-01T05:09:45;5.80;;;4.40;;
57565;SDS011;63999;43.882;-0.310;2023-03-01T05:12:12;5.60;;;3.90;;
57565;SDS011;63999;43.882;-0.310;2023-03-01T05:14:38;5.63;;;4.10;;
57565;SDS011;63999;43.882;-0.310;2023-03-01T05:17:04;5.10;;;3.83;;
57565;SDS011;63999;43.882;-0.310;2023-03-01T05:19:31;4.88;;;4.38;;
57565;SDS011;63999;43.882;-0.310;2023-03-01T05:21:58;5.47;;;4.25;;
57565;SDS011;63999;43.882;-0.310;2023-03-01T05:24:27;7.07;;;4.50;;
57565;SDS011;63999;43.882;-0.310;2023-03-01T05:26:54;5.18;;;4.00;;
57565;SDS011;63999;43.882;-0.310;2023-03-01T05:29:20;5.65;;;4.32;;
57565;SDS011;63999;43.882;-0.310;2023-03-01T05:31:56;4.80;;;3.88;;
57565;SDS011;63999;43.882;-0.310;2023-03-01T05:34:26;5.53;;;4.05;;
57565;SDS011;63999;43.882;-0.310;2023-03-01T05:36:57;5.57;;;3.83;;
57565;SDS011;63999;43.882;-0.310;2023-03-01T05:39:24;4.40;;;4.00;;
57565;SDS011;63999;43.882;-0.310;2023-03-01T05:41:52;5.53;;;4.20;;
57565;SDS011;63999;43.882;-0.310;2023-03-01T05:44:19;5.65;;;4.30;;
57565;SDS011;63999;43.882;-0.310;2023-03-01T05:46:46;6.38;;;4.10;;
57565;SDS011;63999;43.882;-0.310;2023-03-01T05:49:12;5.40;;;4.18;;
57565;SDS011;63999;43.882;-0.310;2023-03-01T05:51:40;5.93;;;4.38;;
57565;SDS011;63999;43.882;-0.310;2023-03-01T05:54:06;6.28;;;4.20;;
57565;SDS011;63999;43.882;-0.310;2023-03-01T05:56:33;5.63;;;4.10;;
57565;SDS011;63999;43.882;-0.310;2023-03-01T05:59:00;5.20;;;4.18;;
57565;SDS011;63999;43.882;-0.310;2023-03-01T06:01:27;5.82;;;4.47;;
57565;SDS011;63999;43.882;-0.310;2023-03-01T06:03:53;5.22;;;3.92;;
57565;SDS011;63999;43.882;-0.310;2023-03-01T06:06:18;7.18;;;4.53;;
57565;SDS011;63999;43.882;-0.310;2023-03-01T06:08:44;6.50;;;4.50;;
57565;SDS011;63999;43.882;-0.310;2023-03-01T06:11:10;5.20;;;4.22;;
57565;SDS011;63999;43.882;-0.310;2023-03-01T06:13:36;7.32;;;4.35;;
57565;SDS011;63999;43.882;-0.310;2023-03-01T06:16:04;6.20;;;4.75;;
57565;SDS011;63999;43.882;-0.310;2023-03-01T06:18:31;7.65;;;4.88;;
57565;SDS011;63999;43.882;-0.310;2023-03-01T06:20:57;5.53;;;4.68;;
57565;SDS011;63999;43.882;-0.310;2023-03-01T06:23:23;5.70;;;4.45;;
57565;SDS011;63999;43.882;-0.310;2023-03-01T06:25:50;5.13;;;4.28;;
57565;SDS011;63999;43.882;-0.310;2023-03-01T06:28:15;5.20;;;4.43;;
57565;SDS011;63999;43.882;-0.310;2023-03-01T06:30:41;6.95;;;4.68;;
57565;SDS011;63999;43.882;-0.310;2023-03-01T06:33:07;5.65;;;4.82;;
57565;SDS011;63999;43.882;-0.310;2023-03-01T06:35:33;5.65;;;5.05;;
57565;SDS011;63999;43.882;-0.310;2023-03-01T06:38:00;6.03;;;5.22;;
57565;SDS011;63999;43.882;-0.310;2023-03-01T06:40:27;6.93;;;5.85;;
57565;SDS011;63999;43.882;-0.310;2023-03-01T06:42:53;7.93;;;6.78;;
57565;SDS011;63999;43.882;-0.310;2023-03-01T06:45:19;7.90;;;7.03;;
57565;SDS011;63999;43.882;-0.310;2023-03-01T06:47:46;8.15;;;6.60;;
57565;SDS011;63999;43.882;-0.310;2023-03-01T06:50:12;7.03;;;6.32;;
57565;SDS011;63999;43.882;-0.310;2023-03-01T06:52:39;7.75;;;5.30;;
57565;SDS011;63999;43.882;-0.310;2023-03-01T06:55:05;6.90;;;5.60;;
57565;SDS011;63999;43.882;-0.310;2023-03-01T06:57:32;9.77;;;6.25;;
57565;SDS011;63999;43.882;-0.310;2023-03-01T06:59:58;6.55;;;5.85;;
57565;SDS011;63999;43.882;-0.310;2023-03-01T07:02:24;5.93;;;4.72;;
57565;SDS011;63999;43.882;-0.310;2023-03-01T07:04:50;9.32;;;5.63;;
57565;SDS011;63999;43.882;-0.310;2023-03-01T07:07:16;5.90;;;4.97;;
57565;SDS011;63999;43.882;-0.310;2023-03-01T07:09:46;9.07;;;5.13;;
57565;SDS011;63999;43.882;-0.310;2023-03-01T07:12:14;5.70;;;4.45;;
57565;SDS011;63999;43.882;-0.310;2023-03-01T07:14:39;5.57;;;4.97;;
57565;SDS011;63999;43.882;-0.310;2023-03-01T07:17:05;7.40;;;5.35;;
57565;SDS011;63999;43.882;-0.310;2023-03-01T07:19:32;6.43;;;4.25;;
57565;SDS011;63999;43.882;-0.310;2023-03-01T07:21:57;5.88;;;4.90;;
57565;SDS011;63999;43.882;-0.310;2023-03-01T07:24:23;4.72;;;4.18;;
57565;SDS011;63999;43.882;-0.310;2023-03-01T07:26:50;5.22;;;4.20;;
57565;SDS011;63999;43.882;-0.310;2023-03-01T07:29:17;7.30;;;4.90;;
57565;SDS011;63999;43.882;-0.310;2023-03-01T07:31:43;8.52;;;5.28;;
57565;SDS011;63999;43.882;-0.310;2023-03-01T07:34:09;5.55;;;4.50;;
57565;SDS011;63999;43.882;-0.310;2023-03-01T07:36:36;6.90;;;5.20;;
57565;SDS011;63999;43.882;-0.310;2023-03-01T07:39:02;6.93;;;5.78;;
57565;SDS011;63999;43.882;-0.310;2023-03-01T07:41:29;10.38;;;8.00;;
57565;SDS011;63999;43.882;-0.310;2023-03-01T07:43:55;6.72;;;5.57;;
57565;SDS011;63999;43.882;-0.310;2023-03-01T07:46:21;10.43;;;9.10;;
57565;SDS011;63999;43.882;-0.310;2023-03-01T07:48:46;14.75;;;10.95;;
57565;SDS011;63999;43.882;-0.310;2023-03-01T07:51:12;11.70;;;10.35;;
57565;SDS011;63999;43.882;-0.310;2023-03-01T07:53:38;13.07;;;8.20;;
57565;SDS011;63999;43.882;-0.310;2023-03-01T07:56:08;14.35;;;10.10;;
57565;SDS011;63999;43.882;-0.310;2023-03-01T07:58:36;11.27;;;8.70;;
57565;SDS011;63999;43.882;-0.310;2023-03-01T08:01:03;18.08;;;13.57;;
57565;SDS011;63999;43.882;-0.310;2023-03-01T08:03:30;16.52;;;12.60;;
57565;SDS011;63999;43.882;-0.310;2023-03-01T08:05:58;20.50;;;14.50;;
57565;SDS011;63999;43.882;-0.310;2023-03-01T08:08:25;22.90;;;17.30;;
57565;SDS011;63999;43.882;-0.310;2023-03-01T08:10:51;18.27;;;14.23;;
57565;SDS011;63999;43.882;-0.310;2023-03-01T08:13:17;20.38;;;13.38;;
57565;SDS011;63999;43.882;-0.310;2023-03-01T08:15:47;17.25;;;12.52;;
57565;SDS011;63999;43.882;-0.310;2023-03-01T08:18:14;15.10;;;11.48;;
57565;SDS011;63999;43.882;-0.310;2023-03-01T08:20:42;13.30;;;9.77;;
57565;SDS011;63999;43.882;-0.310;2023-03-01T08:23:07;11.68;;;8.63;;
57565;SDS011;63999;43.882;-0.310;2023-03-01T08:25:33;12.68;;;9.07;;
57565;SDS011;63999;43.882;-0.310;2023-03-01T08:27:59;12.88;;;9.95;;
57565;SDS011;63999;43.882;-0.310;2023-03-01T08:30:25;12.40;;;9.35;;
57565;SDS011;63999;43.882;-0.310;2023-03-01T08:32:51;12.05;;;9.23;;
57565;SDS011;63999;43.882;-0.310;2023-03-01T08:35:17;10.02;;;7.57;;
57565;SDS011;63999;43.882;-0.310;2023-03-01T08:37:44;9.18;;;7.15;;
57565;SDS011;63999;43.882;-0.310;2023-03-01T08:40:09;10.23;;;7.57;;
57565;SDS011;63999;43.882;-0.310;2023-03-01T08:42:38;9.93;;;7.45;;
57565;SDS011;63999;43.882;-0.310;2023-03-01T08:45:11;9.05;;;7.53;;
57565;SDS011;63999;43.882;-0.310;2023-03-01T08:47:39;11.85;;;7.88;;
57565;SDS011;63999;43.882;-0.310;2023-03-01T08:50:05;24.77;;;13.82;;
57565;SDS011;63999;43.882;-0.310;2023-03-01T08:52:32;20.35;;;13.13;;
57565;SDS011;63999;43.882;-0.310;2023-03-01T08:54:57;35.60;;;22.45;;
57565;SDS011;63999;43.882;-0.310;2023-03-01T08:57:26;19.20;;;12.43;;
57565;SDS011;63999;43.882;-0.310;2023-03-01T08:59:52;13.80;;;10.27;;
57565;SDS011;63999;43.882;-0.310;2023-03-01T09:02:18;12.18;;;8.57;;
57565;SDS011;63999;43.882;-0.310;2023-03-01T09:04:44;17.73;;;10.63;;
57565;SDS011;63999;43.882;-0.310;2023-03-01T09:07:09;11.43;;;8.75;;
57565;SDS011;63999;43.882;-0.310;2023-03-01T09:09:36;8.18;;;7.38;;
57565;SDS011;63999;43.882;-0.310;2023-03-01T09:12:02;10.90;;;7.25;;
57565;SDS011;63999;43.882;-0.310;2023-03-01T09:14:28;8.02;;;7.00;;
57565;SDS011;63999;43.882;-0.310;2023-03-01T09:16:55;9.35;;;7.20;;
57565;SDS011;63999;43.882;-0.310;2023-03-01T09:19:21;9.57;;;7.20;;
57565;SDS011;63999;43.882;-0.310;2023-03-01T09:21:47;10.18;;;6.95;;
57565;SDS011;63999;43.882;-0.310;2023-03-01T09:24:23;9.60;;;7.22;;
57565;SDS011;63999;43.882;-0.310;2023-03-01T09:26:51;8.70;;;6.38;;
57565;SDS011;63999;43.882;-0.310;2023-03-01T09:29:39;7.85;;;6.82;;
57565;SDS011;63999;43.882;-0.310;2023-03-01T09:32:05;9.18;;;8.18;;
57565;SDS011;63999;43.882;-0.310;2023-03-01T09:34:31;9.05;;;8.13;;
57565;SDS011;63999;43.882;-0.310;2023-03-01T09:37:17;8.40;;;7.43;;
57565;SDS011;63999;43.882;-0.310;2023-03-01T09:39:43;7.38;;;5.75;;
57565;SDS011;63999;43.882;-0.310;2023-03-01T09:42:10;9.18;;;7.47;;
57565;SDS011;63999;43.882;-0.310;2023-03-01T09:44:40;11.73;;;7.60;;
57565;SDS011;63999;43.882;-0.310;2023-03-01T09:47:29;9.57;;;7.57;;
57565;SDS011;63999;43.882;-0.310;2023-03-01T09:50:14;8.07;;;6.40;;
57565;SDS011;63999;43.882;-0.310;2023-03-01T09:55:39;7.10;;;6.25;;
57565;SDS011;63999;43.882;-0.310;2023-03-01T10:09:40;10.65;;;7.22;;
57565;SDS011;63999;43.882;-0.310;2023-03-01T10:12:15;8.10;;;7.10;;
57565;SDS011;63999;43.882;-0.310;2023-03-01T10:14:55;6.82;;;6.22;;
57565;SDS011;63999;43.882;-0.310;2023-03-01T10:17:39;7.03;;;6.30;;
57565;SDS011;63999;43.882;-0.310;2023-03-01T10:20:24;6.70;;;6.07;;
57565;SDS011;63999;43.882;-0.310;2023-03-01T10:23:08;8.05;;;6.30;;
57565;SDS011;63999;43.882;-0.310;2023-03-01T10:25:46;7.57;;;6.47;;
57565;SDS011;63999;43.882;-0.310;2023-03-01T10:31:04;7.05;;;6.10;;
57565;SDS011;63999;43.882;-0.310;2023-03-01T10:33:37;7.32;;;6.53;;
57565;SDS011;63999;43.882;-0.310;2023-03-01T10:36:07;7.47;;;6.68;;
57565;SDS011;63999;43.882;-0.310;2023-03-01T10:38:55;7.32;;;6.07;;
57565;SDS011;63999;43.882;-0.310;2023-03-01T10:41:22;7.43;;;5.90;;
57565;SDS011;63999;43.882;-0.310;2023-03-01T10:43:53;7.28;;;6.30;;
57565;SDS011;63999;43.882;-0.310;2023-03-01T10:46:24;7.70;;;6.82;;
57565;SDS011;63999;43.882;-0.310;2023-03-01T10:49:16;6.80;;;6.10;;
57565;SDS011;63999;43.882;-0.310;2023-03-01T10:51:47;7.43;;;6.50;;
57565;SDS011;63999;43.882;-0.310;2023-03-01T10:56:59;8.88;;;6.63;;
57565;SDS011;63999;43.882;-0.310;2023-03-01T10:59:33;7.03;;;6.30;;
57565;SDS011;63999;43.882;-0.310;2023-03-01T11:04:57;7.35;;;6.50;;
57565;SDS011;63999;43.882;-0.310;2023-03-01T11:07:42;7.38;;;6.40;;
57565;SDS011;63999;43.882;-0.310;2023-03-01T11:10:20;7.28;;;6.57;;
57565;SDS011;63999;43.882;-0.310;2023-03-01T11:12:51;8.15;;;6.25;;
57565;SDS011;63999;43.882;-0.310;2023-03-01T11:15:36;7.82;;;6.82;;
57565;SDS011;63999;43.882;-0.310;2023-03-01T11:18:02;9.80;;;6.32;;
57565;SDS011;63999;43.882;-0.310;2023-03-01T11:20:34;7.10;;;6.43;;
57565;SDS011;63999;43.882;-0.310;2023-03-01T11:23:05;7.13;;;6.43;;
57565;SDS011;63999;43.882;-0.310;2023-03-01T11:25:37;6.10;;;5.50;;
57565;SDS011;63999;43.882;-0.310;2023-03-01T11:28:06;6.78;;;6.10;;
57565;SDS011;63999;43.882;-0.310;2023-03-01T11:30:51;7.35;;;5.93;;
57565;SDS011;63999;43.882;-0.310;2023-03-01T11:38:29;7.57;;;6.78;;
57565;SDS011;63999;43.882;-0.310;2023-03-01T11:41:00;8.82;;;5.28;;
57565;SDS011;63999;43.882;-0.310;2023-03-01T11:46:25;6.65;;;4.50;;
57565;SDS011;63999;43.882;-0.310;2023-03-01T11:54:09;6.60;;;5.00;;
57565;SDS011;63999;43.882;-0.310;2023-03-01T11:59:30;8.45;;;6.82;;
57565;SDS011;63999;43.882;-0.310;2023-03-01T12:02:25;6.60;;;4.78;;
57565;SDS011;63999;43.882;-0.310;2023-03-01T12:05:05;8.05;;;6.65;;
57565;SDS011;63999;43.882;-0.310;2023-03-01T12:07:55;5.85;;;4.35;;
57565;SDS011;63999;43.882;-0.310;2023-03-01T12:10:44;5.60;;;4.95;;
57565;SDS011;63999;43.882;-0.310;2023-03-01T12:19:28;6.90;;;5.80;;
57565;SDS011;63999;43.882;-0.310;2023-03-01T12:36:10;5.50;;;4.20;;
57565;SDS011;63999;43.882;-0.310;2023-03-01T12:41:59;6.60;;;4.72;;
57565;SDS011;63999;43.882;-0.310;2023-03-01T12:45:04;10.52;;;9.15;;
57565;SDS011;63999;43.882;-0.310;2023-03-01T12:48:01;7.43;;;4.68;;
57565;SDS011;63999;43.882;-0.310;2023-03-01T12:53:22;4.82;;;4.03;;
57565;SDS011;63999;43.882;-0.310;2023-03-01T12:56:02;5.88;;;5.28;;
57565;SDS011;63999;43.882;-0.310;2023-03-01T12:58:32;8.05;;;7.25;;
57565;SDS011;63999;43.882;-0.310;2023-03-01T13:17:49;4.32;;;3.90;;
57565;SDS011;63999;43.882;-0.310;2023-03-01T13:30:57;5.55;;;4.93;;
57565;SDS011;63999;43.882;-0.310;2023-03-01T13:35:52;8.35;;;6.07;;
57565;SDS011;63999;43.882;-0.310;2023-03-01T13:44:13;4.35;;;3.90;;
57565;SDS011;63999;43.882;-0.310;2023-03-01T13:46:50;5.05;;;3.92;;
57565;SDS011;63999;43.882;-0.310;2023-03-01T13:49:45;4.80;;;3.83;;
57565;SDS011;63999;43.882;-0.310;2023-03-01T13:52:39;5.20;;;4.70;;
57565;SDS011;63999;43.882;-0.310;2023-03-01T13:57:43;5.82;;;4.65;;
57565;SDS011;63999;43.882;-0.310;2023-03-01T14:03:05;5.25;;;4.75;;
57565;SDS011;63999;43.882;-0.310;2023-03-01T14:05:37;6.95;;;4.38;;
57565;SDS011;63999;43.882;-0.310;2023-03-01T14:08:04;8.23;;;6.68;;
57565;SDS011;63999;43.882;-0.310;2023-03-01T14:10:44;4.80;;;4.32;;
57565;SDS011;63999;43.882;-0.310;2023-03-01T14:16:17;6.03;;;4.30;;
57565;SDS011;63999;43.882;-0.310;2023-03-01T14:19:13;5.80;;;4.30;;
57565;SDS011;63999;43.882;-0.310;2023-03-01T14:24:37;6.63;;;4.82;;
57565;SDS011;63999;43.882;-0.310;2023-03-01T14:27:11;4.75;;;4.25;;
57565;SDS011;63999;43.882;-0.310;2023-03-01T14:29:38;8.13;;;4.43;;
57565;SDS011;63999;43.882;-0.310;2023-03-01T14:32:51;6.32;;;4.13;;
57565;SDS011;63999;43.882;-0.310;2023-03-01T14:34:55;4.97;;;4.03;;
57565;SDS011;63999;43.882;-0.310;2023-03-01T14:37:23;5.07;;;4.40;;
57565;SDS011;63999;43.882;-0.310;2023-03-01T14:39:54;5.32;;;4.55;;
57565;SDS011;63999;43.882;-0.310;2023-03-01T14:42:22;5.68;;;3.97;;
57565;SDS011;63999;43.882;-0.310;2023-03-01T14:44:51;6.35;;;3.80;;
57565;SDS011;63999;43.882;-0.310;2023-03-01T14:50:07;6.03;;;3.97;;
57565;SDS011;63999;43.882;-0.310;2023-03-01T14:52:47;7.03;;;4.28;;
57565;SDS011;63999;43.882;-0.310;2023-03-01T14:55:19;5.15;;;4.22;;
57565;SDS011;63999;43.882;-0.310;2023-03-01T14:57:50;6.53;;;4.40;;
57565;SDS011;63999;43.882;-0.310;2023-03-01T15:00:21;6.78;;;5.38;;
57565;SDS011;63999;43.882;-0.310;2023-03-01T15:02:53;5.72;;;3.65;;
57565;SDS011;63999;43.882;-0.310;2023-03-01T15:05:29;4.63;;;3.50;;
57565;SDS011;63999;43.882;-0.310;2023-03-01T15:07:57;6.78;;;3.70;;
57565;SDS011;63999;43.882;-0.310;2023-03-01T15:10:29;6.10;;;4.13;;
57565;SDS011;63999;43.882;-0.310;2023-03-01T15:13:13;4.72;;;3.72;;
57565;SDS011;63999;43.882;-0.310;2023-03-01T15:15:47;6.55;;;4.97;;
57565;SDS011;63999;43.882;-0.310;2023-03-01T15:18:20;5.93;;;3.53;;
57565;SDS011;63999;43.882;-0.310;2023-03-01T15:20:50;8.18;;;5.28;;
57565;SDS011;63999;43.882;-0.310;2023-03-01T15:23:19;4.55;;;3.97;;
57565;SDS011;63999;43.882;-0.310;2023-03-01T15:25:53;7.30;;;4.93;;
57565;SDS011;63999;43.882;-0.310;2023-03-01T15:28:27;5.63;;;4.70;;
57565;SDS011;63999;43.882;-0.310;2023-03-01T15:33:48;4.93;;;3.65;;
57565;SDS011;63999;43.882;-0.310;2023-03-01T15:36:33;6.35;;;4.45;;
57565;SDS011;63999;43.882;-0.310;2023-03-01T15:41:58;5.15;;;3.88;;
57565;SDS011;63999;43.882;-0.310;2023-03-01T15:44:26;6.30;;;4.32;;
57565;SDS011;63999;43.882;-0.310;2023-03-01T15:46:55;5.88;;;3.60;;
57565;SDS011;63999;43.882;-0.310;2023-03-01T15:51:56;5.38;;;3.58;;
57565;SDS011;63999;43.882;-0.310;2023-03-01T15:54:24;5.72;;;3.75;;
57565;SDS011;63999;43.882;-0.310;2023-03-01T15:56:51;4.15;;;3.50;;
57565;SDS011;63999;43.882;-0.310;2023-03-01T15:59:17;4.78;;;3.70;;
57565;SDS011;63999;43.882;-0.310;2023-03-01T16:01:44;4.63;;;3.90;;
57565;SDS011;63999;43.882;-0.310;2023-03-01T16:04:11;4.43;;;3.50;;
57565;SDS011;63999;43.882;-0.310;2023-03-01T16:06:45;4.53;;;3.53;;
57565;SDS011;63999;43.882;-0.310;2023-03-01T16:09:23;4.18;;;3.20;;
57565;SDS011;63999;43.882;-0.310;2023-03-01T16:11:50;4.20;;;2.88;;
57565;SDS011;63999;43.882;-0.310;2023-03-01T16:14:17;7.13;;;4.22;;
57565;SDS011;63999;43.882;-0.310;2023-03-01T16:16:43;4.25;;;3.40;;
57565;SDS011;63999;43.882;-0.310;2023-03-01T16:19:10;4.45;;;3.35;;
57565;SDS011;63999;43.882;-0.310;2023-03-01T16:21:37;3.13;;;2.55;;
57565;SDS011;63999;43.882;-0.310;2023-03-01T16:24:03;4.82;;;3.35;;
57565;SDS011;63999;43.882;-0.310;2023-03-01T16:26:29;4.57;;;3.70;;
57565;SDS011;63999;43.882;-0.310;2023-03-01T16:28:55;4.75;;;3.40;;
57565;SDS011;63999;43.882;-0.310;2023-03-01T16:31:22;6.50;;;3.50;;
57565;SDS011;63999;43.882;-0.310;2023-03-01T16:33:52;5.63;;;3.53;;
57565;SDS011;63999;43.882;-0.310;2023-03-01T16:36:19;4.88;;;3.80;;
57565;SDS011;63999;43.882;-0.310;2023-03-01T16:38:48;3.13;;;2.75;;
57565;SDS011;63999;43.882;-0.310;2023-03-01T16:41:16;6.50;;;3.95;;
57565;SDS011;63999;43.882;-0.310;2023-03-01T16:43:43;5.80;;;3.28;;
57565;SDS011;63999;43.882;-0.310;2023-03-01T16:48:38;4.97;;;3.28;;
57565;SDS011;63999;43.882;-0.310;2023-03-01T16:51:05;4.10;;;3.30;;
57565;SDS011;63999;43.882;-0.310;2023-03-01T16:53:35;5.22;;;3.70;;
57565;SDS011;63999;43.882;-0.310;2023-03-01T16:56:04;4.45;;;3.45;;
57565;SDS011;63999;43.882;-0.310;2023-03-01T16:58:32;5.47;;;4.10;;
57565;SDS011;63999;43.882;-0.310;2023-03-01T17:01:06;3.72;;;2.97;;
57565;SDS011;63999;43.882;-0.310;2023-03-01T17:03:37;5.72;;;3.80;;
57565;SDS011;63999;43.882;-0.310;2023-03-01T17:06:07;4.82;;;3.38;;
57565;SDS011;63999;43.882;-0.310;2023-03-01T17:08:36;4.65;;;3.72;;